sensor_id;sensor_type;location;lat;lon;timestamp;P1;durP1;ratioP1;P2;durP2;ratioP2
52574;SDS011;38468;48.114;-1.684;2023-07-31T00:00:17;13.02;;;6.68;;
52574;SDS011;38468;48.114;-1.684;2023-07-31T00:02:18;14.05;;;7.72;;
52574;SDS011;38468;48.114;-1.684;2023-07-31T00:04:18;16.33;;;6.88;;
52574;SDS011;38468;48.114;-1.684;2023-07-31T00:06:19;10.55;;;6.65;;
52574;SDS011;38468;48.114;-1.684;2023-07-31T00:08:20;20.55;;;8.32;;
52574;SDS011;38468;48.114;-1.684;2023-07-31T00:10:20;12.93;;;6.13;;
52574;SDS011;38468;48.114;-1.684;2023-07-31T00:12:21;11.20;;;5.63;;
52574;SDS011;38468;48.114;-1.684;2023-07-31T00:14:22;19.10;;;6.75;;
52574;SDS011;38468;48.114;-1.684;2023-07-31T00:16:22;23.15;;;7.32;;
52574;SDS011;38468;48.114;-1.684;2023-07-31T00:18:23;13.50;;;6.00;;
52574;SDS011;38468;48.114;-1.684;2023-07-31T00:20:24;11.80;;;6.60;;
52574;SDS011;38468;48.114;-1.684;2023-07-31T00:22:24;11.90;;;6.40;;
52574;SDS011;38468;48.114;-1.684;2023-07-31T00:24:25;15.45;;;6.43;;
52574;SDS011;38468;48.114;-1.684;2023-07-31T00:26:26;13.13;;;6.25;;
52574;SDS011;38468;48.114;-1.684;2023-07-31T00:28:27;16.42;;;6.30;;
52574;SDS011;38468;48.114;-1.684;2023-07-31T00:30:28;17.38;;;8.05;;
52574;SDS011;38468;48.114;-1.684;2023-07-31T00:32:29;14.88;;;5.63;;
52574;SDS011;38468;48.114;-1.684;2023-07-31T00:34:30;13.65;;;6.10;;
52574;SDS011;38468;48.114;-1.684;2023-07-31T00:36:30;18.70;;;6.72;;
52574;SDS011;38468;48.114;-1.684;2023-07-31T00:38:31;12.10;;;6.15;;
52574;SDS011;38468;48.114;-1.684;2023-07-31T00:40:35;14.52;;;6.45;;
52574;SDS011;38468;48.114;-1.684;2023-07-31T00:42:37;9.85;;;6.15;;
52574;SDS011;38468;48.114;-1.684;2023-07-31T00:44:37;12.18;;;5.80;;
52574;SDS011;38468;48.114;-1.684;2023-07-31T00:46:38;13.80;;;7.32;;
52574;SDS011;38468;48.114;-1.684;2023-07-31T00:48:40;16.05;;;6.38;;
52574;SDS011;38468;48.114;-1.684;2023-07-31T00:50:44;16.73;;;6.20;;
52574;SDS011;38468;48.114;-1.684;2023-07-31T00:52:47;14.85;;;6.90;;
52574;SDS011;38468;48.114;-1.684;2023-07-31T00:54:49;12.82;;;7.05;;
52574;SDS011;38468;48.114;-1.684;2023-07-31T00:56:50;14.43;;;7.20;;
52574;SDS011;38468;48.114;-1.684;2023-07-31T00:58:57;15.32;;;7.32;;
52574;SDS011;38468;48.114;-1.684;2023-07-31T01:00:59;16.10;;;7.15;;
52574;SDS011;38468;48.114;-1.684;2023-07-31T01:03:02;23.52;;;7.30;;
52574;SDS011;38468;48.114;-1.684;2023-07-31T01:05:03;16.75;;;5.85;;
52574;SDS011;38468;48.114;-1.684;2023-07-31T01:09:25;14.50;;;7.75;;
52574;SDS011;38468;48.114;-1.684;2023-07-31T01:11:43;15.77;;;7.63;;
52574;SDS011;38468;48.114;-1.684;2023-07-31T01:13:56;16.85;;;6.50;;
52574;SDS011;38468;48.114;-1.684;2023-07-31T01:15:58;16.13;;;6.57;;
52574;SDS011;38468;48.114;-1.684;2023-07-31T01:17:58;12.00;;;6.35;;
52574;SDS011;38468;48.114;-1.684;2023-07-31T01:19:59;15.32;;;6.55;;
52574;SDS011;38468;48.114;-1.684;2023-07-31T01:22:23;11.30;;;5.43;;
52574;SDS011;38468;48.114;-1.684;2023-07-31T01:27:27;19.58;;;6.75;;
52574;SDS011;38468;48.114;-1.684;2023-07-31T01:29:44;17.80;;;7.57;;
52574;SDS011;38468;48.114;-1.684;2023-07-31T01:32:04;13.10;;;6.55;;
52574;SDS011;38468;48.114;-1.684;2023-07-31T01:34:06;15.77;;;7.05;;
52574;SDS011;38468;48.114;-1.684;2023-07-31T01:36:08;12.27;;;6.80;;
52574;SDS011;38468;48.114;-1.684;2023-07-31T01:38:10;18.90;;;8.13;;
52574;SDS011;38468;48.114;-1.684;2023-07-31T01:40:11;16.80;;;7.00;;
52574;SDS011;38468;48.114;-1.684;2023-07-31T01:42:12;13.52;;;6.35;;
52574;SDS011;38468;48.114;-1.684;2023-07-31T01:44:13;12.43;;;6.78;;
52574;SDS011;38468;48.114;-1.684;2023-07-31T01:46:13;10.65;;;5.93;;
52574;SDS011;38468;48.114;-1.684;2023-07-31T01:48:14;15.18;;;7.05;;
52574;SDS011;38468;48.114;-1.684;2023-07-31T01:50:14;12.50;;;5.78;;
52574;SDS011;38468;48.114;-1.684;2023-07-31T01:52:15;14.30;;;6.72;;
52574;SDS011;38468;48.114;-1.684;2023-07-31T01:54:16;11.50;;;5.40;;
52574;SDS011;38468;48.114;-1.684;2023-07-31T01:56:16;15.32;;;5.97;;
52574;SDS011;38468;48.114;-1.684;2023-07-31T01:58:17;15.95;;;6.38;;
52574;SDS011;38468;48.114;-1.684;2023-07-31T02:00:18;17.00;;;6.03;;
52574;SDS011;38468;48.114;-1.684;2023-07-31T02:02:22;12.77;;;5.78;;
52574;SDS011;38468;48.114;-1.684;2023-07-31T02:04:23;14.00;;;6.85;;
52574;SDS011;38468;48.114;-1.684;2023-07-31T02:06:23;20.95;;;8.18;;
52574;SDS011;38468;48.114;-1.684;2023-07-31T02:08:24;14.35;;;5.63;;
52574;SDS011;38468;48.114;-1.684;2023-07-31T02:10:25;13.38;;;5.93;;
52574;SDS011;38468;48.114;-1.684;2023-07-31T02:12:25;18.42;;;5.80;;
52574;SDS011;38468;48.114;-1.684;2023-07-31T02:14:26;15.73;;;6.53;;
52574;SDS011;38468;48.114;-1.684;2023-07-31T02:16:26;14.77;;;6.65;;
52574;SDS011;38468;48.114;-1.684;2023-07-31T02:18:27;13.15;;;5.43;;
52574;SDS011;38468;48.114;-1.684;2023-07-31T02:20:28;11.73;;;6.13;;
52574;SDS011;38468;48.114;-1.684;2023-07-31T02:22:28;16.65;;;5.95;;
52574;SDS011;38468;48.114;-1.684;2023-07-31T02:24:29;15.20;;;5.93;;
52574;SDS011;38468;48.114;-1.684;2023-07-31T02:26:30;14.27;;;6.25;;
52574;SDS011;38468;48.114;-1.684;2023-07-31T02:28:31;17.48;;;6.60;;
52574;SDS011;38468;48.114;-1.684;2023-07-31T02:30:31;11.15;;;5.82;;
52574;SDS011;38468;48.114;-1.684;2023-07-31T02:32:32;17.92;;;6.35;;
52574;SDS011;38468;48.114;-1.684;2023-07-31T02:34:33;15.05;;;5.40;;
52574;SDS011;38468;48.114;-1.684;2023-07-31T02:36:33;13.60;;;6.22;;
52574;SDS011;38468;48.114;-1.684;2023-07-31T02:38:34;12.57;;;5.82;;
52574;SDS011;38468;48.114;-1.684;2023-07-31T02:40:34;16.05;;;6.00;;
52574;SDS011;38468;48.114;-1.684;2023-07-31T02:42:35;14.02;;;5.82;;
52574;SDS011;38468;48.114;-1.684;2023-07-31T02:44:36;12.75;;;6.50;;
52574;SDS011;38468;48.114;-1.684;2023-07-31T02:46:36;14.98;;;7.15;;
52574;SDS011;38468;48.114;-1.684;2023-07-31T02:48:37;17.67;;;7.45;;
52574;SDS011;38468;48.114;-1.684;2023-07-31T02:50:38;16.98;;;6.60;;
52574;SDS011;38468;48.114;-1.684;2023-07-31T02:52:38;15.77;;;6.47;;
52574;SDS011;38468;48.114;-1.684;2023-07-31T02:54:39;19.27;;;7.00;;
52574;SDS011;38468;48.114;-1.684;2023-07-31T02:56:40;11.48;;;6.63;;
52574;SDS011;38468;48.114;-1.684;2023-07-31T02:58:40;15.88;;;7.30;;
52574;SDS011;38468;48.114;-1.684;2023-07-31T03:00:42;12.70;;;5.95;;
52574;SDS011;38468;48.114;-1.684;2023-07-31T03:02:43;11.95;;;5.88;;
52574;SDS011;38468;48.114;-1.684;2023-07-31T03:04:43;12.43;;;6.28;;
52574;SDS011;38468;48.114;-1.684;2023-07-31T03:06:44;12.82;;;6.97;;
52574;SDS011;38468;48.114;-1.684;2023-07-31T03:08:45;15.20;;;6.10;;
52574;SDS011;38468;48.114;-1.684;2023-07-31T03:10:45;14.38;;;5.50;;
52574;SDS011;38468;48.114;-1.684;2023-07-31T03:12:46;14.07;;;5.85;;
52574;SDS011;38468;48.114;-1.684;2023-07-31T03:14:48;16.98;;;6.13;;
52574;SDS011;38468;48.114;-1.684;2023-07-31T03:16:48;14.07;;;6.38;;
52574;SDS011;38468;48.114;-1.684;2023-07-31T03:18:49;15.30;;;5.72;;
52574;SDS011;38468;48.114;-1.684;2023-07-31T03:20:50;15.27;;;6.00;;
52574;SDS011;38468;48.114;-1.684;2023-07-31T03:22:50;16.00;;;6.03;;
52574;SDS011;38468;48.114;-1.684;2023-07-31T03:24:51;18.88;;;5.82;;
52574;SDS011;38468;48.114;-1.684;2023-07-31T03:26:51;11.40;;;5.72;;
52574;SDS011;38468;48.114;-1.684;2023-07-31T03:28:52;10.85;;;5.85;;
52574;SDS011;38468;48.114;-1.684;2023-07-31T03:30:53;13.10;;;5.78;;
52574;SDS011;38468;48.114;-1.684;2023-07-31T03:32:53;10.70;;;4.93;;
52574;SDS011;38468;48.114;-1.684;2023-07-31T03:34:54;12.07;;;5.80;;
52574;SDS011;38468;48.114;-1.684;2023-07-31T03:36:54;16.30;;;6.20;;
52574;SDS011;38468;48.114;-1.684;2023-07-31T03:38:55;14.15;;;6.15;;
52574;SDS011;38468;48.114;-1.684;2023-07-31T03:40:56;12.40;;;7.05;;
52574;SDS011;38468;48.114;-1.684;2023-07-31T03:42:58;10.15;;;6.03;;
52574;SDS011;38468;48.114;-1.684;2023-07-31T03:44:59;12.25;;;6.43;;
52574;SDS011;38468;48.114;-1.684;2023-07-31T03:47:00;14.55;;;6.50;;
52574;SDS011;38468;48.114;-1.684;2023-07-31T03:49:00;8.98;;;5.03;;
52574;SDS011;38468;48.114;-1.684;2023-07-31T03:51:01;12.02;;;5.43;;
52574;SDS011;38468;48.114;-1.684;2023-07-31T03:53:02;10.85;;;5.25;;
52574;SDS011;38468;48.114;-1.684;2023-07-31T03:55:02;16.88;;;6.32;;
52574;SDS011;38468;48.114;-1.684;2023-07-31T03:57:03;17.10;;;7.28;;
52574;SDS011;38468;48.114;-1.684;2023-07-31T03:59:04;18.45;;;5.68;;
52574;SDS011;38468;48.114;-1.684;2023-07-31T04:01:05;12.52;;;5.68;;
52574;SDS011;38468;48.114;-1.684;2023-07-31T04:03:06;12.02;;;6.10;;
52574;SDS011;38468;48.114;-1.684;2023-07-31T04:05:07;13.10;;;6.00;;
52574;SDS011;38468;48.114;-1.684;2023-07-31T04:07:08;10.90;;;6.13;;
52574;SDS011;38468;48.114;-1.684;2023-07-31T04:09:08;15.25;;;5.57;;
52574;SDS011;38468;48.114;-1.684;2023-07-31T04:11:09;12.05;;;5.63;;
52574;SDS011;38468;48.114;-1.684;2023-07-31T04:13:09;13.40;;;5.47;;
52574;SDS011;38468;48.114;-1.684;2023-07-31T04:15:10;8.38;;;5.53;;
52574;SDS011;38468;48.114;-1.684;2023-07-31T04:17:11;17.15;;;6.53;;
52574;SDS011;38468;48.114;-1.684;2023-07-31T04:19:11;12.27;;;6.43;;
52574;SDS011;38468;48.114;-1.684;2023-07-31T04:21:16;14.48;;;6.57;;
52574;SDS011;38468;48.114;-1.684;2023-07-31T04:23:17;15.70;;;6.33;;
52574;SDS011;38468;48.114;-1.684;2023-07-31T04:25:18;16.77;;;6.10;;
52574;SDS011;38468;48.114;-1.684;2023-07-31T04:27:18;12.32;;;5.95;;
52574;SDS011;38468;48.114;-1.684;2023-07-31T04:29:19;11.32;;;5.88;;
52574;SDS011;38468;48.114;-1.684;2023-07-31T04:31:20;15.73;;;7.18;;
52574;SDS011;38468;48.114;-1.684;2023-07-31T04:33:20;14.82;;;6.68;;
52574;SDS011;38468;48.114;-1.684;2023-07-31T04:35:21;17.05;;;6.13;;
52574;SDS011;38468;48.114;-1.684;2023-07-31T04:37:22;17.25;;;6.07;;
52574;SDS011;38468;48.114;-1.684;2023-07-31T04:39:22;15.02;;;5.68;;
52574;SDS011;38468;48.114;-1.684;2023-07-31T04:41:23;11.43;;;5.28;;
52574;SDS011;38468;48.114;-1.684;2023-07-31T04:43:24;16.60;;;6.75;;
52574;SDS011;38468;48.114;-1.684;2023-07-31T04:45:26;14.93;;;6.18;;
52574;SDS011;38468;48.114;-1.684;2023-07-31T04:47:27;14.68;;;6.20;;
52574;SDS011;38468;48.114;-1.684;2023-07-31T04:49:27;17.75;;;6.30;;
52574;SDS011;38468;48.114;-1.684;2023-07-31T04:51:28;13.00;;;5.22;;
52574;SDS011;38468;48.114;-1.684;2023-07-31T04:53:28;13.45;;;5.50;;
52574;SDS011;38468;48.114;-1.684;2023-07-31T04:55:29;13.95;;;6.55;;
52574;SDS011;38468;48.114;-1.684;2023-07-31T04:57:30;17.67;;;5.93;;
52574;SDS011;38468;48.114;-1.684;2023-07-31T04:59:30;18.52;;;6.00;;
52574;SDS011;38468;48.114;-1.684;2023-07-31T05:01:31;13.85;;;7.07;;
52574;SDS011;38468;48.114;-1.684;2023-07-31T05:03:32;13.82;;;5.85;;
52574;SDS011;38468;48.114;-1.684;2023-07-31T05:05:32;12.95;;;6.32;;
52574;SDS011;38468;48.114;-1.684;2023-07-31T05:07:33;9.80;;;4.78;;
52574;SDS011;38468;48.114;-1.684;2023-07-31T05:09:34;12.95;;;6.25;;
52574;SDS011;38468;48.114;-1.684;2023-07-31T05:11:35;16.48;;;5.75;;
52574;SDS011;38468;48.114;-1.684;2023-07-31T05:13:35;13.30;;;5.55;;
52574;SDS011;38468;48.114;-1.684;2023-07-31T05:15:36;9.93;;;4.80;;
52574;SDS011;38468;48.114;-1.684;2023-07-31T05:17:37;12.45;;;6.25;;
52574;SDS011;38468;48.114;-1.684;2023-07-31T05:19:37;10.70;;;5.63;;
52574;SDS011;38468;48.114;-1.684;2023-07-31T05:21:38;15.55;;;5.82;;
52574;SDS011;38468;48.114;-1.684;2023-07-31T05:23:39;10.85;;;5.32;;
52574;SDS011;38468;48.114;-1.684;2023-07-31T05:25:39;14.45;;;5.18;;
52574;SDS011;38468;48.114;-1.684;2023-07-31T05:27:40;14.13;;;4.82;;
52574;SDS011;38468;48.114;-1.684;2023-07-31T05:29:40;19.98;;;7.68;;
52574;SDS011;38468;48.114;-1.684;2023-07-31T05:31:41;11.57;;;5.10;;
52574;SDS011;38468;48.114;-1.684;2023-07-31T05:33:42;10.68;;;5.03;;
52574;SDS011;38468;48.114;-1.684;2023-07-31T05:35:42;14.77;;;5.72;;
52574;SDS011;38468;48.114;-1.684;2023-07-31T05:37:44;9.75;;;5.57;;
52574;SDS011;38468;48.114;-1.684;2023-07-31T05:39:45;11.23;;;4.35;;
52574;SDS011;38468;48.114;-1.684;2023-07-31T05:41:46;8.75;;;4.95;;
52574;SDS011;38468;48.114;-1.684;2023-07-31T05:43:47;14.18;;;5.97;;
52574;SDS011;38468;48.114;-1.684;2023-07-31T05:45:47;9.60;;;5.07;;
52574;SDS011;38468;48.114;-1.684;2023-07-31T05:47:48;12.00;;;4.90;;
52574;SDS011;38468;48.114;-1.684;2023-07-31T05:49:49;14.55;;;5.63;;
52574;SDS011;38468;48.114;-1.684;2023-07-31T05:51:52;18.33;;;6.35;;
52574;SDS011;38468;48.114;-1.684;2023-07-31T05:53:53;13.57;;;5.82;;
52574;SDS011;38468;48.114;-1.684;2023-07-31T05:55:54;9.30;;;5.30;;
52574;SDS011;38468;48.114;-1.684;2023-07-31T05:57:54;12.60;;;6.03;;
52574;SDS011;38468;48.114;-1.684;2023-07-31T05:59:55;11.10;;;5.25;;
52574;SDS011;38468;48.114;-1.684;2023-07-31T06:01:55;10.00;;;4.35;;
52574;SDS011;38468;48.114;-1.684;2023-07-31T06:03:57;12.18;;;5.10;;
52574;SDS011;38468;48.114;-1.684;2023-07-31T06:05:57;12.27;;;4.95;;
52574;SDS011;38468;48.114;-1.684;2023-07-31T06:07:58;15.80;;;6.68;;
52574;SDS011;38468;48.114;-1.684;2023-07-31T06:09:59;12.18;;;5.25;;
52574;SDS011;38468;48.114;-1.684;2023-07-31T06:12:04;14.07;;;5.40;;
52574;SDS011;38468;48.114;-1.684;2023-07-31T06:14:05;16.98;;;5.72;;
52574;SDS011;38468;48.114;-1.684;2023-07-31T06:16:06;13.80;;;4.95;;
52574;SDS011;38468;48.114;-1.684;2023-07-31T06:18:06;9.23;;;4.43;;
52574;SDS011;38468;48.114;-1.684;2023-07-31T06:20:07;11.93;;;5.40;;
52574;SDS011;38468;48.114;-1.684;2023-07-31T06:22:08;10.45;;;3.63;;
52574;SDS011;38468;48.114;-1.684;2023-07-31T06:24:09;11.93;;;4.93;;
52574;SDS011;38468;48.114;-1.684;2023-07-31T06:26:10;12.98;;;4.85;;
52574;SDS011;38468;48.114;-1.684;2023-07-31T06:28:10;10.77;;;4.45;;
52574;SDS011;38468;48.114;-1.684;2023-07-31T06:30:11;12.85;;;4.85;;
52574;SDS011;38468;48.114;-1.684;2023-07-31T06:32:12;13.20;;;4.43;;
52574;SDS011;38468;48.114;-1.684;2023-07-31T06:34:12;9.98;;;3.92;;
52574;SDS011;38468;48.114;-1.684;2023-07-31T06:36:13;7.65;;;3.83;;
52574;SDS011;38468;48.114;-1.684;2023-07-31T06:38:14;9.48;;;4.45;;
52574;SDS011;38468;48.114;-1.684;2023-07-31T06:40:14;15.25;;;4.60;;
52574;SDS011;38468;48.114;-1.684;2023-07-31T06:42:15;12.23;;;5.20;;
52574;SDS011;38468;48.114;-1.684;2023-07-31T06:44:16;7.90;;;3.85;;
52574;SDS011;38468;48.114;-1.684;2023-07-31T06:46:16;18.70;;;5.65;;
52574;SDS011;38468;48.114;-1.684;2023-07-31T06:48:17;8.43;;;4.45;;
52574;SDS011;38468;48.114;-1.684;2023-07-31T06:50:18;10.43;;;4.28;;
52574;SDS011;38468;48.114;-1.684;2023-07-31T06:52:18;9.77;;;3.58;;
52574;SDS011;38468;48.114;-1.684;2023-07-31T06:54:19;7.55;;;3.72;;
52574;SDS011;38468;48.114;-1.684;2023-07-31T06:56:20;8.95;;;4.28;;
52574;SDS011;38468;48.114;-1.684;2023-07-31T06:58:21;9.00;;;3.80;;
52574;SDS011;38468;48.114;-1.684;2023-07-31T07:00:22;8.23;;;3.55;;
52574;SDS011;38468;48.114;-1.684;2023-07-31T07:02:23;8.75;;;4.70;;
52574;SDS011;38468;48.114;-1.684;2023-07-31T07:04:24;17.85;;;4.63;;
52574;SDS011;38468;48.114;-1.684;2023-07-31T07:06:25;8.02;;;3.70;;
52574;SDS011;38468;48.114;-1.684;2023-07-31T07:08:25;10.43;;;4.55;;
52574;SDS011;38468;48.114;-1.684;2023-07-31T07:10:26;10.65;;;3.58;;
52574;SDS011;38468;48.114;-1.684;2023-07-31T07:12:30;9.65;;;3.78;;
52574;SDS011;38468;48.114;-1.684;2023-07-31T07:14:31;8.85;;;3.80;;
52574;SDS011;38468;48.114;-1.684;2023-07-31T07:16:32;8.73;;;3.80;;
52574;SDS011;38468;48.114;-1.684;2023-07-31T07:18:32;9.77;;;4.03;;
52574;SDS011;38468;48.114;-1.684;2023-07-31T07:20:33;5.88;;;3.90;;
52574;SDS011;38468;48.114;-1.684;2023-07-31T07:22:33;7.07;;;4.63;;
52574;SDS011;38468;48.114;-1.684;2023-07-31T07:24:34;11.35;;;4.50;;
52574;SDS011;38468;48.114;-1.684;2023-07-31T07:26:35;10.80;;;4.15;;
52574;SDS011;38468;48.114;-1.684;2023-07-31T07:28:35;7.63;;;4.28;;
52574;SDS011;38468;48.114;-1.684;2023-07-31T07:30:37;12.23;;;4.93;;
52574;SDS011;38468;48.114;-1.684;2023-07-31T07:32:37;8.55;;;4.35;;
52574;SDS011;38468;48.114;-1.684;2023-07-31T07:34:38;14.90;;;4.93;;
52574;SDS011;38468;48.114;-1.684;2023-07-31T07:36:39;10.23;;;3.95;;
52574;SDS011;38468;48.114;-1.684;2023-07-31T07:38:39;10.18;;;3.92;;
52574;SDS011;38468;48.114;-1.684;2023-07-31T07:40:41;6.57;;;3.10;;
52574;SDS011;38468;48.114;-1.684;2023-07-31T07:42:42;14.40;;;4.05;;
52574;SDS011;38468;48.114;-1.684;2023-07-31T07:44:42;4.05;;;3.17;;
52574;SDS011;38468;48.114;-1.684;2023-07-31T07:46:43;9.90;;;3.45;;
52574;SDS011;38468;48.114;-1.684;2023-07-31T07:48:44;11.55;;;2.90;;
52574;SDS011;38468;48.114;-1.684;2023-07-31T07:50:44;5.78;;;3.83;;
52574;SDS011;38468;48.114;-1.684;2023-07-31T07:52:45;9.80;;;3.80;;
52574;SDS011;38468;48.114;-1.684;2023-07-31T07:54:46;7.38;;;4.28;;
52574;SDS011;38468;48.114;-1.684;2023-07-31T07:56:46;7.90;;;3.15;;
52574;SDS011;38468;48.114;-1.684;2023-07-31T07:58:50;6.70;;;3.78;;
52574;SDS011;38468;48.114;-1.684;2023-07-31T08:00:51;8.80;;;4.07;;
52574;SDS011;38468;48.114;-1.684;2023-07-31T08:02:51;7.57;;;3.00;;
52574;SDS011;38468;48.114;-1.684;2023-07-31T08:04:52;8.70;;;3.95;;
52574;SDS011;38468;48.114;-1.684;2023-07-31T08:06:53;6.32;;;3.78;;
52574;SDS011;38468;48.114;-1.684;2023-07-31T08:08:53;6.80;;;3.85;;
52574;SDS011;38468;48.114;-1.684;2023-07-31T08:10:54;11.35;;;4.03;;
52574;SDS011;38468;48.114;-1.684;2023-07-31T08:12:55;10.35;;;3.50;;
52574;SDS011;38468;48.114;-1.684;2023-07-31T08:14:55;14.38;;;3.53;;
52574;SDS011;38468;48.114;-1.684;2023-07-31T08:16:57;7.25;;;3.97;;
52574;SDS011;38468;48.114;-1.684;2023-07-31T08:18:57;5.75;;;3.55;;
52574;SDS011;38468;48.114;-1.684;2023-07-31T08:20:58;13.88;;;3.47;;
52574;SDS011;38468;48.114;-1.684;2023-07-31T08:22:59;9.40;;;3.42;;
52574;SDS011;38468;48.114;-1.684;2023-07-31T08:24:59;9.13;;;3.00;;
52574;SDS011;38468;48.114;-1.684;2023-07-31T08:27:00;6.07;;;2.92;;
52574;SDS011;38468;48.114;-1.684;2023-07-31T08:29:01;2.67;;;2.47;;
52574;SDS011;38468;48.114;-1.684;2023-07-31T08:31:01;7.70;;;2.85;;
52574;SDS011;38468;48.114;-1.684;2023-07-31T08:33:02;10.25;;;3.83;;
52574;SDS011;38468;48.114;-1.684;2023-07-31T08:35:03;6.68;;;2.30;;
52574;SDS011;38468;48.114;-1.684;2023-07-31T08:37:04;7.27;;;2.90;;
52574;SDS011;38468;48.114;-1.684;2023-07-31T08:39:05;7.70;;;2.67;;
52574;SDS011;38468;48.114;-1.684;2023-07-31T08:41:06;5.63;;;3.47;;
52574;SDS011;38468;48.114;-1.684;2023-07-31T08:43:07;9.35;;;2.70;;
52574;SDS011;38468;48.114;-1.684;2023-07-31T08:45:08;6.97;;;2.85;;
52574;SDS011;38468;48.114;-1.684;2023-07-31T08:47:11;5.65;;;2.55;;
52574;SDS011;38468;48.114;-1.684;2023-07-31T08:49:13;10.02;;;2.67;;
52574;SDS011;38468;48.114;-1.684;2023-07-31T08:51:14;8.73;;;3.05;;
52574;SDS011;38468;48.114;-1.684;2023-07-31T08:53:15;4.57;;;2.65;;
52574;SDS011;38468;48.114;-1.684;2023-07-31T08:55:17;5.10;;;2.47;;
52574;SDS011;38468;48.114;-1.684;2023-07-31T08:57:24;6.35;;;3.78;;
52574;SDS011;38468;48.114;-1.684;2023-07-31T08:59:25;12.85;;;3.55;;
52574;SDS011;38468;48.114;-1.684;2023-07-31T09:01:29;7.88;;;3.10;;
52574;SDS011;38468;48.114;-1.684;2023-07-31T09:03:34;7.22;;;2.95;;
52574;SDS011;38468;48.114;-1.684;2023-07-31T09:05:36;4.78;;;2.90;;
52574;SDS011;38468;48.114;-1.684;2023-07-31T09:07:40;4.82;;;3.22;;
52574;SDS011;38468;48.114;-1.684;2023-07-31T09:09:46;8.98;;;3.08;;
52574;SDS011;38468;48.114;-1.684;2023-07-31T09:11:46;8.27;;;3.05;;
52574;SDS011;38468;48.114;-1.684;2023-07-31T09:13:49;6.45;;;2.65;;
52574;SDS011;38468;48.114;-1.684;2023-07-31T09:15:50;5.97;;;3.22;;
52574;SDS011;38468;48.114;-1.684;2023-07-31T09:17:58;4.78;;;2.88;;
52574;SDS011;38468;48.114;-1.684;2023-07-31T09:22:17;5.15;;;2.83;;
52574;SDS011;38468;48.114;-1.684;2023-07-31T09:24:31;5.32;;;2.78;;
52574;SDS011;38468;48.114;-1.684;2023-07-31T09:28:36;4.65;;;2.83;;
52574;SDS011;38468;48.114;-1.684;2023-07-31T09:30:44;5.05;;;2.50;;
52574;SDS011;38468;48.114;-1.684;2023-07-31T09:32:50;3.97;;;2.58;;
52574;SDS011;38468;48.114;-1.684;2023-07-31T09:34:51;3.55;;;2.85;;
52574;SDS011;38468;48.114;-1.684;2023-07-31T09:36:52;3.55;;;2.85;;
52574;SDS011;38468;48.114;-1.684;2023-07-31T09:38:53;5.75;;;3.35;;
52574;SDS011;38468;48.114;-1.684;2023-07-31T09:40:54;6.78;;;3.33;;
52574;SDS011;38468;48.114;-1.684;2023-07-31T09:42:59;7.67;;;3.87;;
52574;SDS011;38468;48.114;-1.684;2023-07-31T09:45:06;5.00;;;3.08;;
52574;SDS011;38468;48.114;-1.684;2023-07-31T09:47:44;10.40;;;3.25;;
52574;SDS011;38468;48.114;-1.684;2023-07-31T09:49:35;9.20;;;3.55;;
52574;SDS011;38468;48.114;-1.684;2023-07-31T09:51:40;5.90;;;3.60;;
52574;SDS011;38468;48.114;-1.684;2023-07-31T09:53:43;10.07;;;3.95;;
52574;SDS011;38468;48.114;-1.684;2023-07-31T09:55:50;7.40;;;3.78;;
52574;SDS011;38468;48.114;-1.684;2023-07-31T09:57:51;7.32;;;4.28;;
52574;SDS011;38468;48.114;-1.684;2023-07-31T09:59:53;10.77;;;4.22;;
52574;SDS011;38468;48.114;-1.684;2023-07-31T10:01:54;6.05;;;3.35;;
52574;SDS011;38468;48.114;-1.684;2023-07-31T10:03:57;6.85;;;3.92;;
52574;SDS011;38468;48.114;-1.684;2023-07-31T10:05:58;7.90;;;3.95;;
52574;SDS011;38468;48.114;-1.684;2023-07-31T10:08:00;7.28;;;3.65;;
52574;SDS011;38468;48.114;-1.684;2023-07-31T10:10:01;8.30;;;3.72;;
52574;SDS011;38468;48.114;-1.684;2023-07-31T10:12:04;9.52;;;4.60;;
52574;SDS011;38468;48.114;-1.684;2023-07-31T10:14:10;7.32;;;5.20;;
52574;SDS011;38468;48.114;-1.684;2023-07-31T10:16:11;10.40;;;4.90;;
52574;SDS011;38468;48.114;-1.684;2023-07-31T10:18:13;7.25;;;4.57;;
52574;SDS011;38468;48.114;-1.684;2023-07-31T10:20:15;8.25;;;4.68;;
52574;SDS011;38468;48.114;-1.684;2023-07-31T10:22:16;9.60;;;5.53;;
52574;SDS011;38468;48.114;-1.684;2023-07-31T10:24:18;9.63;;;4.32;;
52574;SDS011;38468;48.114;-1.684;2023-07-31T10:26:20;7.65;;;4.72;;
52574;SDS011;38468;48.114;-1.684;2023-07-31T10:28:23;6.53;;;4.32;;
52574;SDS011;38468;48.114;-1.684;2023-07-31T10:30:26;9.40;;;4.28;;
52574;SDS011;38468;48.114;-1.684;2023-07-31T10:32:29;7.20;;;4.28;;
52574;SDS011;38468;48.114;-1.684;2023-07-31T10:34:30;12.87;;;4.23;;
52574;SDS011;38468;48.114;-1.684;2023-07-31T10:36:31;8.70;;;4.30;;
52574;SDS011;38468;48.114;-1.684;2023-07-31T10:38:32;11.55;;;4.32;;
52574;SDS011;38468;48.114;-1.684;2023-07-31T10:40:32;10.98;;;4.45;;
52574;SDS011;38468;48.114;-1.684;2023-07-31T10:42:37;8.35;;;4.72;;
52574;SDS011;38468;48.114;-1.684;2023-07-31T10:44:48;10.27;;;5.75;;
52574;SDS011;38468;48.114;-1.684;2023-07-31T10:46:49;9.00;;;5.05;;
52574;SDS011;38468;48.114;-1.684;2023-07-31T10:49:01;9.15;;;4.53;;
52574;SDS011;38468;48.114;-1.684;2023-07-31T10:51:06;8.77;;;4.82;;
52574;SDS011;38468;48.114;-1.684;2023-07-31T10:53:09;9.13;;;5.13;;
52574;SDS011;38468;48.114;-1.684;2023-07-31T10:57:24;9.38;;;4.68;;
52574;SDS011;38468;48.114;-1.684;2023-07-31T10:59:28;9.73;;;4.60;;
52574;SDS011;38468;48.114;-1.684;2023-07-31T11:01:49;6.80;;;4.15;;
52574;SDS011;38468;48.114;-1.684;2023-07-31T11:03:51;8.48;;;3.97;;
52574;SDS011;38468;48.114;-1.684;2023-07-31T11:06:00;11.38;;;4.57;;
52574;SDS011;38468;48.114;-1.684;2023-07-31T11:08:09;7.47;;;3.80;;
52574;SDS011;38468;48.114;-1.684;2023-07-31T11:10:11;6.53;;;3.75;;
52574;SDS011;38468;48.114;-1.684;2023-07-31T11:12:15;6.45;;;3.58;;
52574;SDS011;38468;48.114;-1.684;2023-07-31T11:14:18;5.55;;;3.78;;
52574;SDS011;38468;48.114;-1.684;2023-07-31T11:16:20;6.28;;;3.20;;
52574;SDS011;38468;48.114;-1.684;2023-07-31T11:18:23;4.43;;;3.42;;
52574;SDS011;38468;48.114;-1.684;2023-07-31T11:20:24;8.20;;;4.03;;
52574;SDS011;38468;48.114;-1.684;2023-07-31T11:22:24;8.15;;;3.92;;
52574;SDS011;38468;48.114;-1.684;2023-07-31T11:24:25;8.45;;;3.53;;
52574;SDS011;38468;48.114;-1.684;2023-07-31T11:26:27;6.45;;;3.20;;
52574;SDS011;38468;48.114;-1.684;2023-07-31T11:28:31;12.35;;;4.78;;
52574;SDS011;38468;48.114;-1.684;2023-07-31T11:30:34;9.82;;;4.43;;
52574;SDS011;38468;48.114;-1.684;2023-07-31T11:32:38;9.02;;;4.53;;
52574;SDS011;38468;48.114;-1.684;2023-07-31T11:34:51;7.53;;;3.90;;
52574;SDS011;38468;48.114;-1.684;2023-07-31T11:36:55;8.90;;;4.10;;
52574;SDS011;38468;48.114;-1.684;2023-07-31T11:39:04;8.30;;;3.85;;
52574;SDS011;38468;48.114;-1.684;2023-07-31T11:41:06;6.63;;;3.85;;
52574;SDS011;38468;48.114;-1.684;2023-07-31T11:43:06;7.18;;;4.00;;
52574;SDS011;38468;48.114;-1.684;2023-07-31T11:45:07;12.15;;;4.55;;
52574;SDS011;38468;48.114;-1.684;2023-07-31T11:47:09;7.53;;;4.20;;
52574;SDS011;38468;48.114;-1.684;2023-07-31T11:49:10;9.00;;;3.78;;
52574;SDS011;38468;48.114;-1.684;2023-07-31T11:51:11;7.03;;;3.80;;
52574;SDS011;38468;48.114;-1.684;2023-07-31T11:53:13;7.57;;;4.43;;
52574;SDS011;38468;48.114;-1.684;2023-07-31T11:55:15;5.68;;;3.50;;
52574;SDS011;38468;48.114;-1.684;2023-07-31T11:57:16;4.57;;;2.92;;
52574;SDS011;38468;48.114;-1.684;2023-07-31T11:59:19;5.75;;;4.13;;
52574;SDS011;38468;48.114;-1.684;2023-07-31T12:01:20;9.15;;;3.50;;
52574;SDS011;38468;48.114;-1.684;2023-07-31T12:03:22;8.32;;;3.70;;
52574;SDS011;38468;48.114;-1.684;2023-07-31T12:05:23;5.57;;;3.73;;
52574;SDS011;38468;48.114;-1.684;2023-07-31T12:07:24;7.28;;;4.03;;